createdAt,value
2022-09-17T00:01:11.659Z,9.40
2022-09-17T00:03:38.540Z,9.40
2022-09-17T00:06:11.308Z,9.30
2022-09-17T00:08:40.011Z,9.30
2022-09-17T00:11:16.144Z,9.20
2022-09-17T00:13:44.936Z,9.00
2022-09-17T00:16:12.915Z,9.10
2022-09-17T00:18:41.924Z,9.10
2022-09-17T00:21:19.943Z,9.00
2022-09-17T00:23:47.409Z,9.00
2022-09-17T00:26:14.506Z,9.00
2022-09-17T00:28:45.354Z,9.00
2022-09-17T00:31:12.613Z,9.00
2022-09-17T00:33:39.601Z,8.90
2022-09-17T00:36:06.951Z,8.90
2022-09-17T00:38:34.471Z,8.90
2022-09-17T00:41:03.115Z,8.80
2022-09-17T00:43:37.643Z,8.80
2022-09-17T00:46:10.099Z,8.80
2022-09-17T00:48:37.380Z,8.90
2022-09-17T00:51:09.119Z,8.90
2022-09-17T00:53:36.088Z,8.90
2022-09-17T00:56:14.952Z,8.90
2022-09-17T00:58:42.079Z,9.10
2022-09-17T01:01:09.211Z,9.00
2022-09-17T01:03:36.427Z,9.00
2022-09-17T01:06:18.070Z,9.10
2022-09-17T01:09:03.671Z,9.00
2022-09-17T01:11:39.574Z,9.00
2022-09-17T01:14:18.587Z,9.10
2022-09-17T01:16:54.233Z,9.10
2022-09-17T01:19:57.614Z,9.10
2022-09-17T01:22:34.412Z,9.10
2022-09-17T01:25:33.088Z,9.10
2022-09-17T01:28:24.503Z,9.00
2022-09-17T01:31:18.840Z,9.10
2022-09-17T01:33:53.935Z,9.30
2022-09-17T01:36:45.221Z,9.40
2022-09-17T01:39:26.300Z,9.50
2022-09-17T01:42:22.472Z,9.40
2022-09-17T01:45:20.516Z,9.40
2022-09-17T01:47:55.746Z,9.50
2022-09-17T01:50:33.575Z,9.40
2022-09-17T01:53:02.981Z,9.40
2022-09-17T01:55:35.566Z,9.30
2022-09-17T01:58:15.770Z,9.30
2022-09-17T02:00:49.631Z,9.30
2022-09-17T02:03:28.146Z,9.30
2022-09-17T02:06:02.230Z,9.30
2022-09-17T02:08:51.536Z,9.10
2022-09-17T02:11:19.843Z,9.10
2022-09-17T02:13:48.923Z,9.10
2022-09-17T02:16:30.584Z,9.10
2022-09-17T02:19:23.219Z,9.10
2022-09-17T02:22:09.523Z,9.00
2022-09-17T02:24:54.911Z,9.20
2022-09-17T02:27:53.697Z,9.10
2022-09-17T02:30:20.825Z,8.90
2022-09-17T02:32:48.926Z,8.90
2022-09-17T02:35:16.518Z,8.90
2022-09-17T02:37:44.463Z,8.90
2022-09-17T02:40:15.373Z,8.90
2022-09-17T02:43:16.113Z,9.00
2022-09-17T02:45:46.740Z,8.80
2022-09-17T02:48:19.705Z,8.70
2022-09-17T02:50:49.383Z,8.80
2022-09-17T02:53:25.179Z,8.70
2022-09-17T02:56:40.574Z,8.60
2022-09-17T02:59:24.965Z,8.70
2022-09-17T03:02:00.858Z,8.60
2022-09-17T03:04:29.618Z,8.50
2022-09-17T03:06:59.060Z,8.40
2022-09-17T03:09:26.665Z,8.50
2022-09-17T03:11:53.717Z,8.30
2022-09-17T03:14:20.784Z,8.30
2022-09-17T03:16:48.173Z,8.30
2022-09-17T03:19:15.165Z,8.30
2022-09-17T03:21:42.064Z,8.20
2022-09-17T03:24:10.988Z,8.30
2022-09-17T03:26:38.838Z,8.30
2022-09-17T03:29:05.826Z,8.40
2022-09-17T03:31:32.831Z,8.40
2022-09-17T03:33:59.784Z,8.40
2022-09-17T03:36:26.746Z,8.20
2022-09-17T03:38:57.763Z,8.30
2022-09-17T03:41:25.338Z,8.30
2022-09-17T03:43:53.305Z,8.30
2022-09-17T03:46:20.849Z,8.20
2022-09-17T03:48:47.799Z,8.30
2022-09-17T03:51:14.830Z,8.20
2022-09-17T03:53:41.838Z,8.20
2022-09-17T03:56:09.096Z,8.30
2022-09-17T03:58:36.638Z,8.30
2022-09-17T04:01:04.661Z,8.20
2022-09-17T04:03:32.447Z,8.20
2022-09-17T04:05:59.835Z,8.20
2022-09-17T04:08:27.203Z,8.30
2022-09-17T04:10:54.314Z,8.30
2022-09-17T04:13:21.520Z,8.20
2022-09-17T04:15:49.453Z,8.20
2022-09-17T04:18:16.774Z,8.10
2022-09-17T04:20:43.777Z,8.00
2022-09-17T04:23:12.765Z,8.10
2022-09-17T04:25:39.735Z,8.10
2022-09-17T04:28:06.720Z,8.10
2022-09-17T04:30:33.642Z,8.10
2022-09-17T04:33:00.664Z,8.00
2022-09-17T04:35:28.011Z,8.20
2022-09-17T04:37:56.906Z,8.40
2022-09-17T04:40:25.002Z,8.30
2022-09-17T04:42:56.314Z,8.30
2022-09-17T04:45:23.638Z,8.30
2022-09-17T04:47:53.216Z,8.50
2022-09-17T04:50:20.926Z,8.50
2022-09-17T04:52:48.432Z,8.60
2022-09-17T04:55:16.119Z,8.60
2022-09-17T04:57:50.585Z,8.60
2022-09-17T05:00:18.726Z,8.70
2022-09-17T05:02:47.420Z,8.70
2022-09-17T05:05:15.476Z,8.70
2022-09-17T05:07:42.730Z,8.70
2022-09-17T05:10:11.069Z,8.80
2022-09-17T05:12:38.318Z,8.80
2022-09-17T05:15:06.280Z,8.90
2022-09-17T05:17:33.435Z,8.80
2022-09-17T05:20:00.371Z,8.90
2022-09-17T05:22:27.321Z,9.00
2022-09-17T05:24:54.284Z,9.10
2022-09-17T05:27:21.281Z,9.10
2022-09-17T05:29:48.210Z,9.10
2022-09-17T05:32:15.354Z,9.10
2022-09-17T05:34:42.299Z,9.10
2022-09-17T05:37:12.584Z,9.30
2022-09-17T05:39:39.748Z,9.30
2022-09-17T05:42:07.002Z,9.40
2022-09-17T05:44:33.924Z,9.30
2022-09-17T05:47:00.863Z,9.30
2022-09-17T05:49:27.858Z,9.30
2022-09-17T05:51:55.111Z,9.20
2022-09-17T05:54:22.115Z,9.00
2022-09-17T05:56:52.794Z,9.00
2022-09-17T05:59:19.802Z,8.90
2022-09-17T06:01:47.112Z,8.90
2022-09-17T06:04:14.546Z,8.90
2022-09-17T06:06:41.822Z,8.90
2022-09-17T06:09:09.334Z,9.00
2022-09-17T06:11:39.748Z,8.90
2022-09-17T06:14:06.740Z,9.00
2022-09-17T06:16:33.730Z,8.90
2022-09-17T06:19:00.816Z,8.80
2022-09-17T06:21:27.832Z,8.90
2022-09-17T06:23:55.110Z,9.00
2022-09-17T06:26:22.151Z,8.90
2022-09-17T06:28:49.059Z,9.00
2022-09-17T06:31:15.976Z,9.00
2022-09-17T06:33:43.040Z,8.90
2022-09-17T06:36:14.009Z,9.00
2022-09-17T06:38:41.875Z,9.00
2022-09-17T06:41:09.112Z,8.90
2022-09-17T06:43:36.125Z,9.00
2022-09-17T06:46:09.194Z,9.00
2022-09-17T06:48:37.648Z,9.10
2022-09-17T06:51:11.162Z,9.10
2022-09-17T06:53:39.347Z,9.00
2022-09-17T06:56:08.467Z,9.10
2022-09-17T06:58:38.896Z,9.20
2022-09-17T07:01:06.472Z,9.20
2022-09-17T07:03:34.528Z,9.20
2022-09-17T07:06:01.551Z,9.10
2022-09-17T07:08:28.620Z,9.10
2022-09-17T07:10:56.592Z,9.20
2022-09-17T07:13:24.190Z,9.30
2022-09-17T07:15:57.941Z,9.40
2022-09-17T07:18:25.939Z,9.60
2022-09-17T07:20:57.587Z,9.80
2022-09-17T07:23:25.981Z,10.00
2022-09-17T07:25:54.720Z,10.20
2022-09-17T07:28:22.659Z,10.40
2022-09-17T07:30:50.834Z,10.50
2022-09-17T07:33:23.189Z,10.80
2022-09-17T07:35:58.498Z,10.80
2022-09-17T07:38:26.657Z,11.00
2022-09-17T07:41:15.065Z,11.10
2022-09-17T07:43:43.096Z,11.20
2022-09-17T07:46:16.262Z,11.20
2022-09-17T07:48:43.474Z,11.50
2022-09-17T07:51:19.975Z,11.70
2022-09-17T07:53:47.825Z,11.80
2022-09-17T07:56:15.143Z,11.60
2022-09-17T07:58:42.767Z,12.50
2022-09-17T08:01:15.366Z,12.70
2022-09-17T08:03:43.812Z,13.00
2022-09-17T08:06:14.416Z,12.30
2022-09-17T08:08:42.402Z,12.00
2022-09-17T08:11:23.657Z,12.70
2022-09-17T08:13:59.947Z,12.50
2022-09-17T08:16:27.064Z,12.50
2022-09-17T08:18:56.593Z,12.30
2022-09-17T08:21:24.118Z,12.50
2022-09-17T08:23:51.200Z,12.60
2022-09-17T08:26:21.625Z,12.70
2022-09-17T08:28:56.534Z,12.70
2022-09-17T08:31:26.553Z,12.60
2022-09-17T08:33:53.535Z,12.60
2022-09-17T08:36:22.719Z,12.70
2022-09-17T08:38:53.766Z,12.80
2022-09-17T08:41:46.919Z,12.90
2022-09-17T08:44:47.133Z,12.80
2022-09-17T08:47:39.159Z,12.90
2022-09-17T08:50:25.904Z,12.80
2022-09-17T08:53:22.485Z,12.50
2022-09-17T08:56:27.735Z,12.60
2022-09-17T08:58:54.958Z,12.30
2022-09-17T09:01:45.248Z,12.40
2022-09-17T09:04:36.467Z,12.50
2022-09-17T09:07:14.195Z,12.40
2022-09-17T09:10:00.869Z,12.60
2022-09-17T09:12:31.822Z,12.60
2022-09-17T09:15:15.935Z,13.10
2022-09-17T09:17:46.259Z,15.20
2022-09-17T09:20:49.541Z,17.00
2022-09-17T09:23:27.774Z,17.30
2022-09-17T09:26:12.159Z,17.60
2022-09-17T09:28:48.228Z,16.70
2022-09-17T09:31:52.147Z,15.90
2022-09-17T09:34:19.399Z,15.90
2022-09-17T09:36:47.130Z,15.70
2022-09-17T09:39:30.718Z,17.10
2022-09-17T09:42:05.772Z,17.60
2022-09-17T09:44:32.947Z,18.50
2022-09-17T09:47:03.009Z,18.40
2022-09-17T09:49:50.261Z,17.80
2022-09-17T09:52:24.161Z,17.50
2022-09-17T09:55:21.300Z,17.70
2022-09-17T09:57:55.899Z,19.70
2022-09-17T10:00:29.487Z,20.70
2022-09-17T10:03:15.474Z,18.80
2022-09-17T10:06:01.227Z,16.80
2022-09-17T10:08:34.361Z,15.10
2022-09-17T10:11:04.526Z,14.30
2022-09-17T10:13:36.798Z,13.50
2022-09-17T10:16:18.931Z,12.60
2022-09-17T10:18:51.474Z,12.10
2022-09-17T10:21:31.811Z,11.80
2022-09-17T10:24:00.079Z,11.50
2022-09-17T10:26:35.698Z,11.50
2022-09-17T10:29:12.416Z,11.80
2022-09-17T10:31:53.915Z,12.30
2022-09-17T10:34:26.938Z,12.50
2022-09-17T10:36:58.566Z,12.60
2022-09-17T10:39:25.616Z,12.60
2022-09-17T10:42:04.723Z,12.50
2022-09-17T10:44:36.724Z,12.30
2022-09-17T10:47:13.592Z,12.10
2022-09-17T10:49:49.633Z,12.20
2022-09-17T10:52:22.660Z,14.40
2022-09-17T10:55:21.045Z,16.50
2022-09-17T10:58:26.267Z,19.00
2022-09-17T11:01:38.898Z,20.50
2022-09-17T11:04:21.017Z,22.00
2022-09-17T11:07:11.943Z,22.80
2022-09-17T11:10:08.297Z,23.30
2022-09-17T11:12:39.360Z,24.30
2022-09-17T11:15:33.463Z,22.30
2022-09-17T11:18:28.584Z,20.70
2022-09-17T11:21:41.508Z,19.40
2022-09-17T11:24:27.387Z,18.30
2022-09-17T11:27:17.831Z,17.20
2022-09-17T11:30:10.690Z,15.90
2022-09-17T11:32:56.564Z,14.80
2022-09-17T11:35:45.458Z,14.90
2022-09-17T11:38:24.091Z,16.70
2022-09-17T11:41:27.622Z,17.20
2022-09-17T11:44:29.882Z,17.70
2022-09-17T11:47:09.880Z,17.70
2022-09-17T11:49:45.490Z,17.70
2022-09-17T11:52:21.850Z,17.80
2022-09-17T11:55:03.079Z,17.60
2022-09-17T11:57:37.687Z,17.10
2022-09-17T12:00:16.273Z,15.70
2022-09-17T12:02:52.320Z,14.70
2022-09-17T12:05:36.310Z,13.80
2022-09-17T12:08:20.987Z,13.10
2022-09-17T12:11:22.955Z,12.60
2022-09-17T12:14:00.523Z,12.30
2022-09-17T12:16:39.103Z,12.40
2022-09-17T12:19:17.334Z,12.40
2022-09-17T12:21:51.379Z,12.40
2022-09-17T12:24:29.421Z,12.80
2022-09-17T12:27:04.889Z,13.00
2022-09-17T12:30:07.147Z,13.40
2022-09-17T12:33:11.906Z,14.10
2022-09-17T12:36:05.346Z,16.60
2022-09-17T12:38:50.876Z,17.40
2022-09-17T12:41:22.303Z,17.60
2022-09-17T12:44:11.329Z,18.80
2022-09-17T12:46:59.210Z,18.50
2022-09-17T12:49:38.352Z,19.90
2022-09-17T12:52:45.043Z,20.10
2022-09-17T12:55:25.043Z,21.10
2022-09-17T12:58:07.536Z,19.70
2022-09-17T13:00:42.790Z,20.30
2022-09-17T13:03:23.915Z,21.60
2022-09-17T13:06:18.444Z,21.40
2022-09-17T13:09:25.675Z,21.20
2022-09-17T13:12:10.707Z,22.00
2022-09-17T13:14:43.490Z,23.00
2022-09-17T13:17:27.723Z,23.20
2022-09-17T13:20:11.544Z,21.40
2022-09-17T13:22:48.883Z,20.20
2022-09-17T13:25:18.475Z,19.60
2022-09-17T13:27:47.578Z,19.20
2022-09-17T13:30:19.209Z,18.50
2022-09-17T13:32:51.617Z,17.50
2022-09-17T13:35:18.649Z,17.60
2022-09-17T13:37:58.554Z,17.00
2022-09-17T13:40:33.474Z,16.50
2022-09-17T13:43:14.197Z,16.40
2022-09-17T13:45:59.497Z,16.30
2022-09-17T13:48:36.100Z,16.80
2022-09-17T13:51:30.984Z,17.00
2022-09-17T13:54:05.133Z,16.50
2022-09-17T13:56:35.227Z,16.30
2022-09-17T13:59:09.652Z,16.00
2022-09-17T14:02:00.834Z,19.00
2022-09-17T14:04:40.479Z,21.30
2022-09-17T14:07:26.975Z,23.60
2022-09-17T14:10:02.566Z,22.20
2022-09-17T14:12:41.487Z,20.70
2022-09-17T14:15:53.924Z,20.40
2022-09-17T14:18:27.495Z,22.90
2022-09-17T14:21:06.547Z,22.20
2022-09-17T14:23:52.399Z,21.40
2022-09-17T14:26:58.067Z,24.70
2022-09-17T14:29:34.827Z,26.90
2022-09-17T14:32:02.020Z,27.90
2022-09-17T14:34:29.359Z,26.20
2022-09-17T14:36:57.103Z,26.10
2022-09-17T14:39:38.390Z,26.30
2022-09-17T14:42:13.409Z,25.30
2022-09-17T14:45:01.939Z,25.00
2022-09-17T14:47:29.136Z,25.00
2022-09-17T14:50:16.869Z,25.50
2022-09-17T14:52:50.022Z,25.60
2022-09-17T14:55:18.821Z,24.90
2022-09-17T14:57:54.976Z,26.70
2022-09-17T15:00:47.186Z,25.80
2022-09-17T15:03:22.485Z,25.80
2022-09-17T15:05:51.061Z,25.80
2022-09-17T15:08:21.326Z,22.50
2022-09-17T15:11:02.010Z,19.20
2022-09-17T15:13:31.947Z,17.70
2022-09-17T15:16:12.856Z,16.90
2022-09-17T15:18:49.135Z,17.30
2022-09-17T15:21:39.232Z,17.40
2022-09-17T15:24:38.747Z,20.70
2022-09-17T15:27:13.823Z,23.60
2022-09-17T15:29:46.919Z,23.80
2022-09-17T15:32:14.630Z,24.50
2022-09-17T15:34:42.355Z,23.30
2022-09-17T15:37:19.571Z,22.60
2022-09-17T15:39:52.266Z,21.70
2022-09-17T15:42:24.329Z,22.00
2022-09-17T15:44:51.639Z,21.70
2022-09-17T15:47:57.049Z,22.10
2022-09-17T15:50:29.881Z,20.50
2022-09-17T15:53:09.297Z,18.20
2022-09-17T15:55:40.033Z,17.40
2022-09-17T15:58:24.680Z,16.60
2022-09-17T16:01:16.040Z,16.30
2022-09-17T16:03:45.971Z,15.90
2022-09-17T16:06:19.130Z,15.70
2022-09-17T16:08:50.205Z,15.50
2022-09-17T16:11:23.440Z,15.50
2022-09-17T16:13:52.125Z,15.50
2022-09-17T16:16:36.930Z,15.50
2022-09-17T16:19:05.957Z,15.40
2022-09-17T16:21:33.013Z,15.20
2022-09-17T16:23:59.983Z,15.00
2022-09-17T16:26:32.565Z,14.80
2022-09-17T16:29:11.019Z,14.70
2022-09-17T16:31:38.001Z,14.40
2022-09-17T16:34:05.123Z,14.20
2022-09-17T16:36:32.334Z,14.10
2022-09-17T16:38:59.869Z,14.10
2022-09-17T16:41:27.555Z,14.00
2022-09-17T16:43:54.460Z,14.10
2022-09-17T16:46:21.511Z,14.00
2022-09-17T16:48:51.956Z,13.80
2022-09-17T16:51:19.603Z,13.60
2022-09-17T16:53:46.980Z,13.60
2022-09-17T16:56:17.115Z,13.60
2022-09-17T16:58:44.259Z,13.40
2022-09-17T17:01:16.190Z,13.30
2022-09-17T17:03:45.720Z,13.10
2022-09-17T17:06:19.917Z,13.00
2022-09-17T17:08:47.333Z,13.00
2022-09-17T17:11:14.602Z,13.00
2022-09-17T17:13:45.627Z,13.00
2022-09-17T17:16:14.762Z,13.00
2022-09-17T17:18:45.289Z,13.00
2022-09-17T17:21:14.046Z,12.90
2022-09-17T17:23:43.594Z,12.90
2022-09-17T17:26:10.737Z,12.60
2022-09-17T17:28:38.105Z,12.30
2022-09-17T17:31:06.431Z,12.00
2022-09-17T17:33:34.102Z,11.60
2022-09-17T17:36:07.325Z,11.40
2022-09-17T17:38:35.643Z,11.30
2022-09-17T17:41:08.446Z,11.10
2022-09-17T17:43:36.051Z,11.10
2022-09-17T17:46:06.827Z,11.00
2022-09-17T17:48:34.639Z,10.80
2022-09-17T17:51:06.337Z,10.70
2022-09-17T17:53:33.825Z,10.70
2022-09-17T17:56:06.789Z,10.60
2022-09-17T17:58:34.840Z,10.40
2022-09-17T18:01:13.931Z,10.20
2022-09-17T18:03:41.236Z,10.20
2022-09-17T18:06:08.914Z,10.10
2022-09-17T18:08:40.523Z,10.10
2022-09-17T18:11:10.139Z,9.90
2022-09-17T18:13:39.319Z,9.90
2022-09-17T18:16:09.159Z,9.90
2022-09-17T18:18:45.261Z,9.80
2022-09-17T18:21:18.417Z,9.70
2022-09-17T18:23:46.294Z,9.70
2022-09-17T18:26:24.805Z,9.60
2022-09-17T18:28:52.302Z,9.60
2022-09-17T18:31:28.800Z,9.40
2022-09-17T18:34:00.511Z,9.40
2022-09-17T18:36:29.703Z,9.50
2022-09-17T18:39:11.078Z,9.40
2022-09-17T18:41:48.928Z,9.40
2022-09-17T18:44:16.030Z,9.40
2022-09-17T18:46:43.283Z,9.40
2022-09-17T18:49:10.445Z,9.40
2022-09-17T18:51:38.022Z,9.40
2022-09-17T18:54:06.087Z,9.50
2022-09-17T18:56:33.244Z,9.50
2022-09-17T18:59:04.372Z,9.60
2022-09-17T19:01:33.446Z,9.40
2022-09-17T19:04:00.543Z,9.50
2022-09-17T19:06:27.988Z,9.40
2022-09-17T19:09:00.097Z,9.40
2022-09-17T19:11:27.889Z,9.50
2022-09-17T19:13:55.512Z,9.40
2022-09-17T19:16:22.975Z,9.30
2022-09-17T19:18:50.371Z,9.40
2022-09-17T19:21:20.646Z,9.20
2022-09-17T19:23:50.544Z,9.30
2022-09-17T19:26:20.651Z,9.30
2022-09-17T19:28:48.078Z,9.40
2022-09-17T19:31:17.173Z,9.30
2022-09-17T19:33:44.766Z,9.20
2022-09-17T19:36:14.556Z,9.20
2022-09-17T19:38:41.864Z,9.20
2022-09-17T19:41:17.799Z,9.10
2022-09-17T19:43:45.722Z,9.20
2022-09-17T19:46:15.096Z,9.40
2022-09-17T19:48:53.526Z,9.40
2022-09-17T19:51:21.912Z,9.50
2022-09-17T19:53:48.874Z,9.50
2022-09-17T19:56:18.500Z,9.50
2022-09-17T19:58:45.961Z,9.50
2022-09-17T20:01:13.859Z,9.60
2022-09-17T20:03:42.255Z,9.70
2022-09-17T20:06:11.643Z,9.80
2022-09-17T20:08:51.132Z,9.80
2022-09-17T20:11:19.779Z,9.80
2022-09-17T20:13:47.157Z,9.90
2022-09-17T20:16:18.676Z,10.20
2022-09-17T20:18:46.584Z,10.20
2022-09-17T20:21:19.335Z,10.20
2022-09-17T20:23:47.183Z,10.20
2022-09-17T20:26:14.943Z,10.10
2022-09-17T20:28:42.925Z,10.10
2022-09-17T20:31:18.980Z,10.20
2022-09-17T20:33:46.943Z,10.00
2022-09-17T20:36:19.407Z,10.10
2022-09-17T20:41:36.040Z,10.00
2022-09-17T20:44:03.186Z,9.80
2022-09-17T20:46:30.408Z,9.80
2022-09-17T20:48:58.616Z,9.60
2022-09-17T20:51:28.443Z,9.60
2022-09-17T20:53:57.237Z,9.50
2022-09-17T20:56:26.995Z,9.60
2022-09-17T20:59:09.382Z,9.50
2022-09-17T21:01:37.788Z,9.60
2022-09-17T21:04:07.730Z,9.60
2022-09-17T21:06:41.094Z,9.60
2022-09-17T21:09:15.865Z,9.70
2022-09-17T21:11:47.538Z,9.80
2022-09-17T21:14:18.549Z,9.80
2022-09-17T21:16:49.029Z,9.90
2022-09-17T21:19:16.653Z,9.80
2022-09-17T21:21:43.980Z,9.80
2022-09-17T21:24:11.170Z,9.70
2022-09-17T21:26:38.117Z,9.70
2022-09-17T21:29:05.312Z,9.70
2022-09-17T21:31:34.444Z,9.60
2022-09-17T21:34:03.854Z,9.60
2022-09-17T21:36:33.637Z,9.70
2022-09-17T21:39:04.066Z,9.60
2022-09-17T21:41:31.651Z,9.50
2022-09-17T21:43:59.259Z,9.40
2022-09-17T21:46:29.035Z,9.30
2022-09-17T21:48:59.948Z,9.30
2022-09-17T21:51:32.047Z,9.30
2022-09-17T21:54:01.301Z,9.30
2022-09-17T21:56:29.099Z,9.20
2022-09-17T21:59:01.670Z,9.20
2022-09-17T22:01:31.896Z,9.20
2022-09-17T22:04:00.148Z,9.30
2022-09-17T22:06:29.801Z,9.20
2022-09-17T22:08:58.186Z,9.10
2022-09-17T22:11:29.532Z,9.10
2022-09-17T22:13:57.683Z,9.30
2022-09-17T22:16:27.081Z,9.30
2022-09-17T22:18:54.476Z,9.30
2022-09-17T22:21:24.303Z,9.40
2022-09-17T22:23:53.144Z,9.40
2022-09-17T22:26:22.287Z,9.50
2022-09-17T22:28:50.330Z,9.50
2022-09-17T22:31:18.463Z,9.70
2022-09-17T22:33:50.941Z,9.70
2022-09-17T22:36:22.940Z,9.70
2022-09-17T22:38:58.363Z,9.90
2022-09-17T22:41:29.366Z,9.80
2022-09-17T22:43:59.103Z,9.80
2022-09-17T22:46:31.752Z,10.00
2022-09-17T22:48:59.091Z,9.90
2022-09-17T22:51:27.982Z,10.00
2022-09-17T22:53:55.816Z,10.00
2022-09-17T22:56:24.235Z,9.90
2022-09-17T22:58:51.426Z,9.90
2022-09-17T23:01:21.272Z,9.90
2022-09-17T23:03:52.216Z,9.90
2022-09-17T23:06:23.836Z,10.00
2022-09-17T23:08:51.296Z,10.00
2022-09-17T23:11:21.259Z,9.90
2022-09-17T23:13:49.078Z,9.90
2022-09-17T23:16:16.609Z,10.00
2022-09-17T23:18:43.660Z,10.00
2022-09-17T23:21:16.768Z,10.10
2022-09-17T23:23:45.814Z,10.10
2022-09-17T23:26:18.813Z,10.10
2022-09-17T23:28:46.511Z,10.00
2022-09-17T23:31:21.090Z,10.10
2022-09-17T23:33:48.925Z,10.10
2022-09-17T23:36:25.079Z,10.00
2022-09-17T23:38:53.747Z,10.10
2022-09-17T23:41:23.852Z,10.10
2022-09-17T23:44:00.254Z,10.10
2022-09-17T23:46:30.014Z,10.10
2022-09-17T23:48:57.175Z,10.10
2022-09-17T23:51:26.122Z,10.00
2022-09-17T23:53:54.503Z,10.10
2022-09-17T23:56:25.542Z,10.10
2022-09-17T23:58:54.334Z,10.20
